sensor_id;sensor_type;location;lat;lon;timestamp;P1;durP1;ratioP1;P2;durP2;ratioP2
73697;SDS011;62004;42.566;23.164;2022-09-09T00:00:17;7.95;;;7.25;;
73697;SDS011;62004;42.566;23.164;2022-09-09T00:02:46;9.25;;;8.35;;
73697;SDS011;62004;42.566;23.164;2022-09-09T00:07:55;9.23;;;7.68;;
73697;SDS011;62004;42.566;23.164;2022-09-09T00:16:09;8.00;;;7.25;;
73697;SDS011;62004;42.566;23.164;2022-09-09T00:21:38;7.88;;;7.07;;
73697;SDS011;62004;42.566;23.164;2022-09-09T00:24:15;8.30;;;6.93;;
73697;SDS011;62004;42.566;23.164;2022-09-09T00:26:53;7.72;;;7.07;;
73697;SDS011;62004;42.566;23.164;2022-09-09T00:29:34;7.70;;;6.93;;
73697;SDS011;62004;42.566;23.164;2022-09-09T00:32:12;7.88;;;7.03;;
73697;SDS011;62004;42.566;23.164;2022-09-09T00:37:12;8.45;;;7.65;;
73697;SDS011;62004;42.566;23.164;2022-09-09T00:39:40;7.85;;;7.10;;
73697;SDS011;62004;42.566;23.164;2022-09-09T00:42:13;7.78;;;6.97;;
73697;SDS011;62004;42.566;23.164;2022-09-09T00:47:44;11.20;;;7.85;;
73697;SDS011;62004;42.566;23.164;2022-09-09T00:50:24;8.50;;;7.60;;
73697;SDS011;62004;42.566;23.164;2022-09-09T00:55:54;8.45;;;7.32;;
73697;SDS011;62004;42.566;23.164;2022-09-09T00:58:25;7.75;;;7.13;;
73697;SDS011;62004;42.566;23.164;2022-09-09T01:00:54;7.95;;;7.07;;
73697;SDS011;62004;42.566;23.164;2022-09-09T01:11:32;8.25;;;7.38;;
73697;SDS011;62004;42.566;23.164;2022-09-09T01:14:10;7.82;;;6.82;;
73697;SDS011;62004;42.566;23.164;2022-09-09T01:16:37;8.05;;;7.35;;
73697;SDS011;62004;42.566;23.164;2022-09-09T01:19:03;7.75;;;6.95;;
73697;SDS011;62004;42.566;23.164;2022-09-09T01:21:44;9.95;;;7.78;;
73697;SDS011;62004;42.566;23.164;2022-09-09T01:24:28;6.57;;;5.97;;
73697;SDS011;62004;42.566;23.164;2022-09-09T01:27:05;9.48;;;7.20;;
73697;SDS011;62004;42.566;23.164;2022-09-09T01:29:31;8.23;;;7.43;;
73697;SDS011;62004;42.566;23.164;2022-09-09T01:31:57;9.25;;;6.70;;
73697;SDS011;62004;42.566;23.164;2022-09-09T01:34:25;7.90;;;7.20;;
73697;SDS011;62004;42.566;23.164;2022-09-09T01:36:56;10.15;;;7.78;;
73697;SDS011;62004;42.566;23.164;2022-09-09T01:39:32;8.57;;;7.80;;
73697;SDS011;62004;42.566;23.164;2022-09-09T01:41:59;8.93;;;8.10;;
73697;SDS011;62004;42.566;23.164;2022-09-09T01:44:24;8.15;;;7.32;;
73697;SDS011;62004;42.566;23.164;2022-09-09T01:46:50;9.23;;;7.47;;
73697;SDS011;62004;42.566;23.164;2022-09-09T01:49:16;13.23;;;7.80;;
73697;SDS011;62004;42.566;23.164;2022-09-09T01:51:42;9.00;;;7.95;;
73697;SDS011;62004;42.566;23.164;2022-09-09T01:54:08;9.10;;;7.55;;
73697;SDS011;62004;42.566;23.164;2022-09-09T02:02:18;9.55;;;6.57;;
73697;SDS011;62004;42.566;23.164;2022-09-09T02:04:52;7.90;;;7.10;;
73697;SDS011;62004;42.566;23.164;2022-09-09T02:09:49;6.93;;;6.25;;
73697;SDS011;62004;42.566;23.164;2022-09-09T02:12:20;7.03;;;6.35;;
73697;SDS011;62004;42.566;23.164;2022-09-09T02:15:05;8.02;;;6.40;;
73697;SDS011;62004;42.566;23.164;2022-09-09T02:17:35;7.22;;;6.50;;
73697;SDS011;62004;42.566;23.164;2022-09-09T02:20:05;7.32;;;5.60;;
73697;SDS011;62004;42.566;23.164;2022-09-09T02:22:34;7.35;;;5.72;;
73697;SDS011;62004;42.566;23.164;2022-09-09T02:25:00;5.82;;;5.32;;
73697;SDS011;62004;42.566;23.164;2022-09-09T02:27:26;7.95;;;6.00;;
73697;SDS011;62004;42.566;23.164;2022-09-09T02:29:53;6.88;;;6.07;;
73697;SDS011;62004;42.566;23.164;2022-09-09T02:32:22;8.07;;;5.60;;
73697;SDS011;62004;42.566;23.164;2022-09-09T02:34:49;7.82;;;5.78;;
73697;SDS011;62004;42.566;23.164;2022-09-09T02:37:19;5.78;;;5.18;;
73697;SDS011;62004;42.566;23.164;2022-09-09T02:39:46;6.15;;;5.63;;
73697;SDS011;62004;42.566;23.164;2022-09-09T02:42:12;6.85;;;5.72;;
73697;SDS011;62004;42.566;23.164;2022-09-09T02:44:39;6.88;;;6.22;;
73697;SDS011;62004;42.566;23.164;2022-09-09T02:47:24;10.02;;;6.47;;
73697;SDS011;62004;42.566;23.164;2022-09-09T02:55:20;6.65;;;6.05;;
73697;SDS011;62004;42.566;23.164;2022-09-09T02:57:55;10.63;;;7.45;;
73697;SDS011;62004;42.566;23.164;2022-09-09T03:00:25;8.20;;;7.45;;
73697;SDS011;62004;42.566;23.164;2022-09-09T03:02:52;10.65;;;8.20;;
73697;SDS011;62004;42.566;23.164;2022-09-09T03:05:19;10.43;;;7.13;;
73697;SDS011;62004;42.566;23.164;2022-09-09T03:07:45;8.30;;;7.50;;
73697;SDS011;62004;42.566;23.164;2022-09-09T03:10:11;9.75;;;7.40;;
73697;SDS011;62004;42.566;23.164;2022-09-09T03:12:36;9.45;;;8.02;;
73697;SDS011;62004;42.566;23.164;2022-09-09T03:15:02;8.07;;;7.28;;
73697;SDS011;62004;42.566;23.164;2022-09-09T03:17:28;6.80;;;6.10;;
73697;SDS011;62004;42.566;23.164;2022-09-09T03:19:53;10.73;;;7.45;;
73697;SDS011;62004;42.566;23.164;2022-09-09T03:22:20;8.68;;;7.38;;
73697;SDS011;62004;42.566;23.164;2022-09-09T03:24:46;7.72;;;7.03;;
73697;SDS011;62004;42.566;23.164;2022-09-09T03:27:12;11.77;;;8.85;;
73697;SDS011;62004;42.566;23.164;2022-09-09T03:29:39;8.32;;;7.43;;
73697;SDS011;62004;42.566;23.164;2022-09-09T03:32:05;8.85;;;7.90;;
73697;SDS011;62004;42.566;23.164;2022-09-09T03:34:30;7.82;;;7.05;;
73697;SDS011;62004;42.566;23.164;2022-09-09T03:36:56;9.10;;;8.10;;
73697;SDS011;62004;42.566;23.164;2022-09-09T03:39:22;8.43;;;7.55;;
73697;SDS011;62004;42.566;23.164;2022-09-09T03:41:47;9.40;;;8.40;;
73697;SDS011;62004;42.566;23.164;2022-09-09T03:44:13;12.73;;;8.35;;
73697;SDS011;62004;42.566;23.164;2022-09-09T03:46:39;9.25;;;8.25;;
73697;SDS011;62004;42.566;23.164;2022-09-09T03:49:04;9.95;;;8.52;;
73697;SDS011;62004;42.566;23.164;2022-09-09T03:51:35;10.63;;;8.38;;
73697;SDS011;62004;42.566;23.164;2022-09-09T03:54:01;9.48;;;8.35;;
73697;SDS011;62004;42.566;23.164;2022-09-09T03:56:30;8.57;;;7.57;;
73697;SDS011;62004;42.566;23.164;2022-09-09T03:58:58;8.75;;;7.93;;
73697;SDS011;62004;42.566;23.164;2022-09-09T04:01:23;9.82;;;7.43;;
73697;SDS011;62004;42.566;23.164;2022-09-09T04:03:49;10.85;;;7.93;;
73697;SDS011;62004;42.566;23.164;2022-09-09T04:06:15;12.40;;;8.00;;
73697;SDS011;62004;42.566;23.164;2022-09-09T04:08:42;10.75;;;9.07;;
73697;SDS011;62004;42.566;23.164;2022-09-09T04:11:07;9.93;;;8.77;;
73697;SDS011;62004;42.566;23.164;2022-09-09T04:13:34;10.75;;;9.40;;
73697;SDS011;62004;42.566;23.164;2022-09-09T04:16:01;13.18;;;8.18;;
73697;SDS011;62004;42.566;23.164;2022-09-09T04:18:28;10.88;;;9.77;;
73697;SDS011;62004;42.566;23.164;2022-09-09T04:20:54;14.48;;;9.23;;
73697;SDS011;62004;42.566;23.164;2022-09-09T04:23:22;9.05;;;7.95;;
73697;SDS011;62004;42.566;23.164;2022-09-09T04:25:50;10.48;;;9.15;;
73697;SDS011;62004;42.566;23.164;2022-09-09T04:28:17;16.63;;;9.48;;
73697;SDS011;62004;42.566;23.164;2022-09-09T04:30:44;13.85;;;12.32;;
73697;SDS011;62004;42.566;23.164;2022-09-09T04:33:10;12.38;;;8.68;;
73697;SDS011;62004;42.566;23.164;2022-09-09T04:35:36;13.02;;;9.85;;
73697;SDS011;62004;42.566;23.164;2022-09-09T04:38:02;13.90;;;10.93;;
73697;SDS011;62004;42.566;23.164;2022-09-09T04:40:29;12.32;;;9.13;;
73697;SDS011;62004;42.566;23.164;2022-09-09T04:42:59;20.48;;;15.35;;
73697;SDS011;62004;42.566;23.164;2022-09-09T04:45:25;16.23;;;10.32;;
73697;SDS011;62004;42.566;23.164;2022-09-09T04:47:56;14.40;;;12.65;;
73697;SDS011;62004;42.566;23.164;2022-09-09T04:50:25;16.08;;;12.98;;
73697;SDS011;62004;42.566;23.164;2022-09-09T04:52:54;9.63;;;8.15;;
73697;SDS011;62004;42.566;23.164;2022-09-09T04:55:29;9.75;;;8.45;;
73697;SDS011;62004;42.566;23.164;2022-09-09T04:58:03;14.15;;;10.63;;
73697;SDS011;62004;42.566;23.164;2022-09-09T05:00:30;8.10;;;6.75;;
73697;SDS011;62004;42.566;23.164;2022-09-09T05:02:56;8.95;;;7.50;;
73697;SDS011;62004;42.566;23.164;2022-09-09T05:05:21;7.47;;;6.78;;
73697;SDS011;62004;42.566;23.164;2022-09-09T05:07:47;7.32;;;6.63;;
73697;SDS011;62004;42.566;23.164;2022-09-09T05:10:13;8.65;;;6.78;;
73697;SDS011;62004;42.566;23.164;2022-09-09T05:12:43;11.23;;;8.48;;
73697;SDS011;62004;42.566;23.164;2022-09-09T05:15:08;10.52;;;8.05;;
73697;SDS011;62004;42.566;23.164;2022-09-09T05:17:34;9.65;;;6.47;;
73697;SDS011;62004;42.566;23.164;2022-09-09T05:20:00;8.43;;;6.22;;
73697;SDS011;62004;42.566;23.164;2022-09-09T05:22:25;11.80;;;8.43;;
73697;SDS011;62004;42.566;23.164;2022-09-09T05:24:51;8.13;;;7.28;;
73697;SDS011;62004;42.566;23.164;2022-09-09T05:27:17;7.03;;;6.18;;
73697;SDS011;62004;42.566;23.164;2022-09-09T05:29:44;7.72;;;5.30;;
73697;SDS011;62004;42.566;23.164;2022-09-09T05:32:10;6.57;;;5.30;;
73697;SDS011;62004;42.566;23.164;2022-09-09T05:34:35;5.95;;;4.88;;
73697;SDS011;62004;42.566;23.164;2022-09-09T05:37:02;5.75;;;5.35;;
73697;SDS011;62004;42.566;23.164;2022-09-09T05:39:29;5.85;;;5.35;;
73697;SDS011;62004;42.566;23.164;2022-09-09T05:41:55;4.03;;;3.20;;
73697;SDS011;62004;42.566;23.164;2022-09-09T05:44:20;6.80;;;4.78;;
73697;SDS011;62004;42.566;23.164;2022-09-09T05:46:45;5.47;;;4.35;;
73697;SDS011;62004;42.566;23.164;2022-09-09T05:49:11;7.95;;;5.03;;
73697;SDS011;62004;42.566;23.164;2022-09-09T05:51:36;8.60;;;5.45;;
73697;SDS011;62004;42.566;23.164;2022-09-09T05:54:02;5.07;;;4.65;;
73697;SDS011;62004;42.566;23.164;2022-09-09T05:56:28;7.03;;;4.40;;
73697;SDS011;62004;42.566;23.164;2022-09-09T05:58:54;6.05;;;5.05;;
73697;SDS011;62004;42.566;23.164;2022-09-09T06:01:21;5.60;;;5.05;;
73697;SDS011;62004;42.566;23.164;2022-09-09T06:03:49;6.22;;;5.55;;
73697;SDS011;62004;42.566;23.164;2022-09-09T06:06:15;7.40;;;5.65;;
73697;SDS011;62004;42.566;23.164;2022-09-09T06:08:43;8.25;;;4.97;;
73697;SDS011;62004;42.566;23.164;2022-09-09T06:13:42;6.35;;;4.85;;
73697;SDS011;62004;42.566;23.164;2022-09-09T06:16:08;10.10;;;7.30;;
73697;SDS011;62004;42.566;23.164;2022-09-09T06:18:36;8.60;;;7.55;;
73697;SDS011;62004;42.566;23.164;2022-09-09T06:21:06;6.32;;;5.72;;
73697;SDS011;62004;42.566;23.164;2022-09-09T06:23:42;7.63;;;5.15;;
73697;SDS011;62004;42.566;23.164;2022-09-09T06:26:10;7.97;;;5.05;;
73697;SDS011;62004;42.566;23.164;2022-09-09T06:28:37;6.07;;;5.43;;
73697;SDS011;62004;42.566;23.164;2022-09-09T06:31:06;6.68;;;6.07;;
73697;SDS011;62004;42.566;23.164;2022-09-09T06:33:33;7.45;;;6.35;;
73697;SDS011;62004;42.566;23.164;2022-09-09T06:36:00;6.45;;;5.88;;
73697;SDS011;62004;42.566;23.164;2022-09-09T06:38:26;9.73;;;8.98;;
73697;SDS011;62004;42.566;23.164;2022-09-09T06:40:57;9.07;;;8.23;;
73697;SDS011;62004;42.566;23.164;2022-09-09T06:43:25;9.05;;;8.15;;
73697;SDS011;62004;42.566;23.164;2022-09-09T06:45:54;6.93;;;6.18;;
73697;SDS011;62004;42.566;23.164;2022-09-09T06:48:24;8.95;;;6.85;;
73697;SDS011;62004;42.566;23.164;2022-09-09T06:50:51;6.57;;;6.07;;
73697;SDS011;62004;42.566;23.164;2022-09-09T06:53:17;5.95;;;5.40;;
73697;SDS011;62004;42.566;23.164;2022-09-09T06:55:44;8.77;;;6.40;;
73697;SDS011;62004;42.566;23.164;2022-09-09T06:58:09;8.98;;;7.10;;
73697;SDS011;62004;42.566;23.164;2022-09-09T07:00:35;9.43;;;7.60;;
73697;SDS011;62004;42.566;23.164;2022-09-09T07:03:02;9.77;;;8.85;;
73697;SDS011;62004;42.566;23.164;2022-09-09T07:05:28;8.93;;;8.15;;
73697;SDS011;62004;42.566;23.164;2022-09-09T07:07:53;8.15;;;7.40;;
73697;SDS011;62004;42.566;23.164;2022-09-09T07:10:19;9.02;;;8.23;;
73697;SDS011;62004;42.566;23.164;2022-09-09T07:12:44;11.57;;;9.80;;
73697;SDS011;62004;42.566;23.164;2022-09-09T07:15:09;12.73;;;11.73;;
73697;SDS011;62004;42.566;23.164;2022-09-09T07:17:35;9.98;;;9.07;;
73697;SDS011;62004;42.566;23.164;2022-09-09T07:20:01;10.13;;;8.80;;
73697;SDS011;62004;42.566;23.164;2022-09-09T07:22:29;13.10;;;11.80;;
73697;SDS011;62004;42.566;23.164;2022-09-09T07:24:54;14.85;;;13.65;;
73697;SDS011;62004;42.566;23.164;2022-09-09T07:27:19;12.73;;;11.70;;
73697;SDS011;62004;42.566;23.164;2022-09-09T07:29:46;16.77;;;9.45;;
73697;SDS011;62004;42.566;23.164;2022-09-09T07:32:12;10.10;;;9.10;;
73697;SDS011;62004;42.566;23.164;2022-09-09T07:34:37;12.60;;;11.50;;
73697;SDS011;62004;42.566;23.164;2022-09-09T07:37:02;11.18;;;10.10;;
73697;SDS011;62004;42.566;23.164;2022-09-09T07:39:28;11.85;;;11.00;;
73697;SDS011;62004;42.566;23.164;2022-09-09T07:41:53;10.23;;;9.20;;
73697;SDS011;62004;42.566;23.164;2022-09-09T07:44:23;7.78;;;7.05;;
73697;SDS011;62004;42.566;23.164;2022-09-09T07:46:49;8.85;;;7.80;;
73697;SDS011;62004;42.566;23.164;2022-09-09T07:49:15;11.18;;;8.30;;
73697;SDS011;62004;42.566;23.164;2022-09-09T07:51:42;7.70;;;6.28;;
73697;SDS011;62004;42.566;23.164;2022-09-09T07:56:36;9.50;;;6.80;;
73697;SDS011;62004;42.566;23.164;2022-09-09T07:59:02;7.82;;;7.03;;
73697;SDS011;62004;42.566;23.164;2022-09-09T08:01:33;6.10;;;5.65;;
73697;SDS011;62004;42.566;23.164;2022-09-09T08:04:06;10.20;;;6.30;;
73697;SDS011;62004;42.566;23.164;2022-09-09T08:06:37;6.88;;;6.07;;
73697;SDS011;62004;42.566;23.164;2022-09-09T08:09:04;10.95;;;6.80;;
73697;SDS011;62004;42.566;23.164;2022-09-09T08:11:29;7.32;;;6.38;;
73697;SDS011;62004;42.566;23.164;2022-09-09T08:13:55;7.35;;;6.65;;
73697;SDS011;62004;42.566;23.164;2022-09-09T08:16:22;6.55;;;5.82;;
73697;SDS011;62004;42.566;23.164;2022-09-09T08:18:50;7.47;;;5.50;;
73697;SDS011;62004;42.566;23.164;2022-09-09T08:21:17;6.07;;;5.47;;
73697;SDS011;62004;42.566;23.164;2022-09-09T08:23:45;6.60;;;6.00;;
73697;SDS011;62004;42.566;23.164;2022-09-09T08:26:13;7.93;;;5.80;;
73697;SDS011;62004;42.566;23.164;2022-09-09T08:28:47;8.68;;;5.68;;
73697;SDS011;62004;42.566;23.164;2022-09-09T08:33:43;6.97;;;5.93;;
73697;SDS011;62004;42.566;23.164;2022-09-09T08:36:10;6.60;;;6.05;;
73697;SDS011;62004;42.566;23.164;2022-09-09T08:38:38;8.32;;;5.75;;
73697;SDS011;62004;42.566;23.164;2022-09-09T08:46:44;7.32;;;6.45;;
73697;SDS011;62004;42.566;23.164;2022-09-09T08:49:33;8.82;;;6.70;;
73697;SDS011;62004;42.566;23.164;2022-09-09T08:52:14;7.07;;;6.35;;
73697;SDS011;62004;42.566;23.164;2022-09-09T08:54:43;10.63;;;6.30;;
73697;SDS011;62004;42.566;23.164;2022-09-09T08:57:11;7.45;;;5.80;;
73697;SDS011;62004;42.566;23.164;2022-09-09T08:59:40;10.88;;;8.70;;
73697;SDS011;62004;42.566;23.164;2022-09-09T09:02:21;7.72;;;7.05;;
73697;SDS011;62004;42.566;23.164;2022-09-09T09:07:26;8.23;;;6.75;;
73697;SDS011;62004;42.566;23.164;2022-09-09T09:10:31;8.68;;;6.80;;
73697;SDS011;62004;42.566;23.164;2022-09-09T09:12:51;8.35;;;7.10;;
73697;SDS011;62004;42.566;23.164;2022-09-09T09:15:21;9.93;;;6.75;;
73697;SDS011;62004;42.566;23.164;2022-09-09T09:17:52;8.73;;;7.38;;
73697;SDS011;62004;42.566;23.164;2022-09-09T09:20:19;8.90;;;5.63;;
73697;SDS011;62004;42.566;23.164;2022-09-09T09:22:49;12.82;;;6.70;;
73697;SDS011;62004;42.566;23.164;2022-09-09T09:25:21;6.95;;;6.35;;
73697;SDS011;62004;42.566;23.164;2022-09-09T09:27:51;7.35;;;6.65;;
73697;SDS011;62004;42.566;23.164;2022-09-09T09:30:23;6.55;;;5.55;;
73697;SDS011;62004;42.566;23.164;2022-09-09T09:32:53;9.73;;;8.45;;
73697;SDS011;62004;42.566;23.164;2022-09-09T09:35:27;9.00;;;7.72;;
73697;SDS011;62004;42.566;23.164;2022-09-09T09:37:52;9.23;;;7.40;;
73697;SDS011;62004;42.566;23.164;2022-09-09T09:40:19;9.18;;;7.25;;
73697;SDS011;62004;42.566;23.164;2022-09-09T09:45:33;9.88;;;6.97;;
73697;SDS011;62004;42.566;23.164;2022-09-09T09:50:29;11.23;;;7.85;;
73697;SDS011;62004;42.566;23.164;2022-09-09T09:52:57;10.25;;;7.47;;
73697;SDS011;62004;42.566;23.164;2022-09-09T09:55:25;10.15;;;7.38;;
73697;SDS011;62004;42.566;23.164;2022-09-09T09:57:50;10.63;;;7.13;;
73697;SDS011;62004;42.566;23.164;2022-09-09T10:00:18;9.48;;;6.75;;
73697;SDS011;62004;42.566;23.164;2022-09-09T10:02:45;10.15;;;7.35;;
73697;SDS011;62004;42.566;23.164;2022-09-09T10:05:16;10.80;;;7.13;;
73697;SDS011;62004;42.566;23.164;2022-09-09T10:08:05;11.32;;;7.53;;
73697;SDS011;62004;42.566;23.164;2022-09-09T10:19:00;10.63;;;8.07;;
73697;SDS011;62004;42.566;23.164;2022-09-09T10:21:51;12.75;;;8.07;;
73697;SDS011;62004;42.566;23.164;2022-09-09T10:35:35;12.73;;;7.50;;
73697;SDS011;62004;42.566;23.164;2022-09-09T10:38:27;13.70;;;6.72;;
73697;SDS011;62004;42.566;23.164;2022-09-09T10:56:42;10.60;;;8.10;;
73697;SDS011;62004;42.566;23.164;2022-09-09T10:59:13;14.88;;;8.52;;
73697;SDS011;62004;42.566;23.164;2022-09-09T11:04:27;11.45;;;7.88;;
73697;SDS011;62004;42.566;23.164;2022-09-09T11:06:57;21.80;;;8.68;;
73697;SDS011;62004;42.566;23.164;2022-09-09T11:09:26;10.77;;;8.88;;
73697;SDS011;62004;42.566;23.164;2022-09-09T11:11:55;15.38;;;9.43;;
73697;SDS011;62004;42.566;23.164;2022-09-09T11:17:18;15.60;;;8.48;;
73697;SDS011;62004;42.566;23.164;2022-09-09T11:19:44;15.25;;;8.70;;
73697;SDS011;62004;42.566;23.164;2022-09-09T11:22:20;9.32;;;7.85;;
73697;SDS011;62004;42.566;23.164;2022-09-09T11:27:38;12.93;;;8.40;;
73697;SDS011;62004;42.566;23.164;2022-09-09T11:30:19;11.95;;;7.90;;
73697;SDS011;62004;42.566;23.164;2022-09-09T11:35:33;16.80;;;8.13;;
73697;SDS011;62004;42.566;23.164;2022-09-09T11:41:13;13.90;;;8.38;;
73697;SDS011;62004;42.566;23.164;2022-09-09T11:46:16;9.35;;;7.60;;
73697;SDS011;62004;42.566;23.164;2022-09-09T11:48:44;9.15;;;7.45;;
73697;SDS011;62004;42.566;23.164;2022-09-09T11:53:51;8.55;;;7.50;;
73697;SDS011;62004;42.566;23.164;2022-09-09T11:59:05;8.40;;;6.75;;
73697;SDS011;62004;42.566;23.164;2022-09-09T12:01:42;7.43;;;5.80;;
73697;SDS011;62004;42.566;23.164;2022-09-09T12:04:21;9.43;;;6.20;;
73697;SDS011;62004;42.566;23.164;2022-09-09T12:07:01;12.02;;;6.93;;
73697;SDS011;62004;42.566;23.164;2022-09-09T12:12:16;7.45;;;5.15;;
73697;SDS011;62004;42.566;23.164;2022-09-09T12:14:58;6.50;;;4.80;;
73697;SDS011;62004;42.566;23.164;2022-09-09T12:17:29;7.60;;;6.88;;
73697;SDS011;62004;42.566;23.164;2022-09-09T12:22:48;10.70;;;5.78;;
73697;SDS011;62004;42.566;23.164;2022-09-09T12:31:25;9.32;;;6.10;;
73697;SDS011;62004;42.566;23.164;2022-09-09T12:34:02;8.57;;;6.22;;
73697;SDS011;62004;42.566;23.164;2022-09-09T12:36:34;14.95;;;6.07;;
73697;SDS011;62004;42.566;23.164;2022-09-09T12:39:10;9.05;;;5.75;;
73697;SDS011;62004;42.566;23.164;2022-09-09T12:41:40;8.02;;;5.72;;
73697;SDS011;62004;42.566;23.164;2022-09-09T12:44:06;10.57;;;5.65;;
73697;SDS011;62004;42.566;23.164;2022-09-09T12:46:39;10.48;;;6.40;;
73697;SDS011;62004;42.566;23.164;2022-09-09T12:49:25;11.75;;;6.70;;
73697;SDS011;62004;42.566;23.164;2022-09-09T12:51:51;9.00;;;5.80;;
73697;SDS011;62004;42.566;23.164;2022-09-09T12:54:17;9.18;;;6.63;;
73697;SDS011;62004;42.566;23.164;2022-09-09T12:56:47;14.68;;;7.20;;
73697;SDS011;62004;42.566;23.164;2022-09-09T13:00:03;10.40;;;6.50;;
73697;SDS011;62004;42.566;23.164;2022-09-09T13:02:25;12.40;;;6.30;;
73697;SDS011;62004;42.566;23.164;2022-09-09T13:04:50;8.50;;;5.78;;
73697;SDS011;62004;42.566;23.164;2022-09-09T13:07:20;8.27;;;5.43;;
73697;SDS011;62004;42.566;23.164;2022-09-09T13:09:47;11.82;;;7.03;;
73697;SDS011;62004;42.566;23.164;2022-09-09T13:12:18;10.00;;;6.80;;
73697;SDS011;62004;42.566;23.164;2022-09-09T13:14:47;12.50;;;7.07;;
73697;SDS011;62004;42.566;23.164;2022-09-09T13:17:25;8.55;;;6.93;;
73697;SDS011;62004;42.566;23.164;2022-09-09T13:19:56;12.70;;;7.10;;
73697;SDS011;62004;42.566;23.164;2022-09-09T13:27:36;7.82;;;6.93;;
73697;SDS011;62004;42.566;23.164;2022-09-09T13:35:34;8.30;;;6.97;;
73697;SDS011;62004;42.566;23.164;2022-09-09T13:38:08;7.00;;;6.32;;
73697;SDS011;62004;42.566;23.164;2022-09-09T13:40:34;8.15;;;7.13;;
73697;SDS011;62004;42.566;23.164;2022-09-09T13:43:01;11.98;;;7.63;;
73697;SDS011;62004;42.566;23.164;2022-09-09T13:45:28;8.73;;;7.90;;
73697;SDS011;62004;42.566;23.164;2022-09-09T13:47:54;7.93;;;6.97;;
73697;SDS011;62004;42.566;23.164;2022-09-09T13:52:53;8.32;;;7.53;;
73697;SDS011;62004;42.566;23.164;2022-09-09T13:55:20;9.82;;;7.85;;
73697;SDS011;62004;42.566;23.164;2022-09-09T13:58:20;8.98;;;6.93;;
73697;SDS011;62004;42.566;23.164;2022-09-09T14:00:40;8.35;;;6.32;;
73697;SDS011;62004;42.566;23.164;2022-09-09T14:03:05;8.07;;;6.82;;
73697;SDS011;62004;42.566;23.164;2022-09-09T14:05:32;7.53;;;6.75;;
73697;SDS011;62004;42.566;23.164;2022-09-09T14:07:58;9.45;;;6.80;;
73697;SDS011;62004;42.566;23.164;2022-09-09T14:10:25;8.20;;;7.38;;
73697;SDS011;62004;42.566;23.164;2022-09-09T14:12:51;8.63;;;6.97;;
73697;SDS011;62004;42.566;23.164;2022-09-09T14:15:16;8.48;;;7.05;;
73697;SDS011;62004;42.566;23.164;2022-09-09T14:17:42;8.07;;;7.30;;
73697;SDS011;62004;42.566;23.164;2022-09-09T14:20:07;9.25;;;6.75;;
73697;SDS011;62004;42.566;23.164;2022-09-09T14:22:34;8.43;;;6.93;;
73697;SDS011;62004;42.566;23.164;2022-09-09T14:25:00;7.22;;;6.63;;
73697;SDS011;62004;42.566;23.164;2022-09-09T14:27:26;7.20;;;6.43;;
73697;SDS011;62004;42.566;23.164;2022-09-09T14:29:51;10.63;;;6.60;;
73697;SDS011;62004;42.566;23.164;2022-09-09T14:32:17;7.55;;;6.57;;
73697;SDS011;62004;42.566;23.164;2022-09-09T14:34:43;9.75;;;6.30;;
73697;SDS011;62004;42.566;23.164;2022-09-09T14:37:08;8.05;;;6.90;;
73697;SDS011;62004;42.566;23.164;2022-09-09T14:39:33;10.32;;;6.85;;
73697;SDS011;62004;42.566;23.164;2022-09-09T14:41:59;11.25;;;6.65;;
73697;SDS011;62004;42.566;23.164;2022-09-09T14:44:26;10.30;;;6.88;;
73697;SDS011;62004;42.566;23.164;2022-09-09T14:46:51;7.90;;;6.70;;
73697;SDS011;62004;42.566;23.164;2022-09-09T14:49:16;9.30;;;6.55;;
73697;SDS011;62004;42.566;23.164;2022-09-09T14:51:42;9.45;;;6.18;;
73697;SDS011;62004;42.566;23.164;2022-09-09T14:54:08;12.52;;;6.75;;
73697;SDS011;62004;42.566;23.164;2022-09-09T14:56:34;8.48;;;6.65;;
73697;SDS011;62004;42.566;23.164;2022-09-09T14:58:59;8.02;;;7.10;;
73697;SDS011;62004;42.566;23.164;2022-09-09T15:01:26;17.23;;;8.20;;
73697;SDS011;62004;42.566;23.164;2022-09-09T15:03:56;8.63;;;7.35;;
73697;SDS011;62004;42.566;23.164;2022-09-09T15:06:23;10.20;;;7.30;;
73697;SDS011;62004;42.566;23.164;2022-09-09T15:08:50;11.45;;;7.97;;
73697;SDS011;62004;42.566;23.164;2022-09-09T15:11:17;9.13;;;7.70;;
73697;SDS011;62004;42.566;23.164;2022-09-09T15:13:42;9.00;;;7.40;;
73697;SDS011;62004;42.566;23.164;2022-09-09T15:16:10;10.82;;;7.63;;
73697;SDS011;62004;42.566;23.164;2022-09-09T15:18:37;15.75;;;7.93;;
73697;SDS011;62004;42.566;23.164;2022-09-09T15:21:05;12.15;;;7.22;;
73697;SDS011;62004;42.566;23.164;2022-09-09T15:23:31;13.27;;;6.88;;
73697;SDS011;62004;42.566;23.164;2022-09-09T15:25:57;10.07;;;6.45;;
73697;SDS011;62004;42.566;23.164;2022-09-09T15:28:23;10.20;;;6.35;;
73697;SDS011;62004;42.566;23.164;2022-09-09T15:30:49;12.48;;;7.10;;
73697;SDS011;62004;42.566;23.164;2022-09-09T15:33:16;8.35;;;6.53;;
73697;SDS011;62004;42.566;23.164;2022-09-09T15:35:42;9.52;;;6.95;;
73697;SDS011;62004;42.566;23.164;2022-09-09T15:38:07;12.20;;;7.05;;
73697;SDS011;62004;42.566;23.164;2022-09-09T15:40:33;10.00;;;7.40;;
73697;SDS011;62004;42.566;23.164;2022-09-09T15:42:58;11.18;;;7.53;;
73697;SDS011;62004;42.566;23.164;2022-09-09T15:45:24;8.30;;;5.90;;
73697;SDS011;62004;42.566;23.164;2022-09-09T15:47:49;11.00;;;7.15;;
73697;SDS011;62004;42.566;23.164;2022-09-09T15:50:15;10.60;;;6.88;;
73697;SDS011;62004;42.566;23.164;2022-09-09T15:52:40;11.93;;;8.10;;
73697;SDS011;62004;42.566;23.164;2022-09-09T15:55:06;9.23;;;7.95;;
73697;SDS011;62004;42.566;23.164;2022-09-09T15:57:33;9.70;;;7.40;;
73697;SDS011;62004;42.566;23.164;2022-09-09T15:59:59;10.57;;;7.75;;
73697;SDS011;62004;42.566;23.164;2022-09-09T16:02:25;9.82;;;8.13;;
73697;SDS011;62004;42.566;23.164;2022-09-09T16:04:50;11.00;;;7.85;;
73697;SDS011;62004;42.566;23.164;2022-09-09T16:07:16;14.27;;;8.25;;
73697;SDS011;62004;42.566;23.164;2022-09-09T16:09:41;9.40;;;7.53;;
73697;SDS011;62004;42.566;23.164;2022-09-09T16:12:08;10.68;;;8.50;;
73697;SDS011;62004;42.566;23.164;2022-09-09T16:14:38;9.93;;;7.47;;
73697;SDS011;62004;42.566;23.164;2022-09-09T16:17:04;10.80;;;8.60;;
73697;SDS011;62004;42.566;23.164;2022-09-09T16:19:31;11.10;;;8.25;;
73697;SDS011;62004;42.566;23.164;2022-09-09T16:21:57;13.50;;;8.65;;
73697;SDS011;62004;42.566;23.164;2022-09-09T16:24:22;12.20;;;9.10;;
73697;SDS011;62004;42.566;23.164;2022-09-09T16:26:52;9.10;;;7.78;;
73697;SDS011;62004;42.566;23.164;2022-09-09T16:29:19;12.38;;;9.05;;
73697;SDS011;62004;42.566;23.164;2022-09-09T16:31:47;9.10;;;7.82;;
73697;SDS011;62004;42.566;23.164;2022-09-09T16:34:13;11.15;;;8.27;;
73697;SDS011;62004;42.566;23.164;2022-09-09T16:36:40;12.57;;;9.40;;
73697;SDS011;62004;42.566;23.164;2022-09-09T16:39:07;15.40;;;8.35;;
73697;SDS011;62004;42.566;23.164;2022-09-09T16:41:35;10.73;;;7.97;;
73697;SDS011;62004;42.566;23.164;2022-09-09T16:44:02;11.90;;;8.60;;
73697;SDS011;62004;42.566;23.164;2022-09-09T16:46:29;11.25;;;8.82;;
73697;SDS011;62004;42.566;23.164;2022-09-09T16:48:56;12.85;;;9.07;;
73697;SDS011;62004;42.566;23.164;2022-09-09T16:53:52;10.45;;;8.40;;
73697;SDS011;62004;42.566;23.164;2022-09-09T16:56:20;12.23;;;9.40;;
73697;SDS011;62004;42.566;23.164;2022-09-09T16:58:52;9.32;;;8.43;;
73697;SDS011;62004;42.566;23.164;2022-09-09T17:01:20;10.80;;;8.80;;
73697;SDS011;62004;42.566;23.164;2022-09-09T17:03:46;12.30;;;8.57;;